sensor_id;sensor_type;location;lat;lon;timestamp;pressure;altitude;pressure_sealevel;temperature;humidity
42761;BME280;31672;47.638;19.026;2022-07-29T00:01:58;100093.53;;;22.75;48.72
42761;BME280;31672;47.638;19.026;2022-07-29T00:07:01;100097.50;;;22.67;49.26
42761;BME280;31672;47.638;19.026;2022-07-29T00:12:04;100096.34;;;22.63;49.43
42761;BME280;31672;47.638;19.026;2022-07-29T00:17:11;100096.19;;;22.53;49.34
42761;BME280;31672;47.638;19.026;2022-07-29T00:22:20;100095.81;;;22.44;49.79
42761;BME280;31672;47.638;19.026;2022-07-29T00:27:23;100093.28;;;22.38;50.16
42761;BME280;31672;47.638;19.026;2022-07-29T00:32:27;100102.13;;;22.33;50.50
42761;BME280;31672;47.638;19.026;2022-07-29T00:37:30;100100.16;;;22.29;50.47
42761;BME280;31672;47.638;19.026;2022-07-29T00:42:49;100091.66;;;22.20;50.81
42761;BME280;31672;47.638;19.026;2022-07-29T00:47:52;100095.09;;;22.15;50.94
42761;BME280;31672;47.638;19.026;2022-07-29T00:52:55;100091.47;;;22.10;51.13
42761;BME280;31672;47.638;19.026;2022-07-29T00:57:59;100092.16;;;22.05;51.17
42761;BME280;31672;47.638;19.026;2022-07-29T01:03:02;100091.59;;;22.03;51.57
42761;BME280;31672;47.638;19.026;2022-07-29T01:08:06;100092.09;;;22.00;51.46
42761;BME280;31672;47.638;19.026;2022-07-29T01:13:10;100089.06;;;21.97;51.74
42761;BME280;31672;47.638;19.026;2022-07-29T01:18:32;100077.34;;;21.91;51.63
42761;BME280;31672;47.638;19.026;2022-07-29T01:29:39;100089.03;;;21.80;52.33
42761;BME280;31672;47.638;19.026;2022-07-29T01:34:58;100074.88;;;21.73;52.51
42761;BME280;31672;47.638;19.026;2022-07-29T01:40:05;100078.75;;;21.65;52.61
42761;BME280;31672;47.638;19.026;2022-07-29T01:45:59;100074.84;;;21.56;52.64
42761;BME280;31672;47.638;19.026;2022-07-29T01:51:24;100074.75;;;21.51;52.49
42761;BME280;31672;47.638;19.026;2022-07-29T01:56:31;100076.28;;;21.47;52.68
42761;BME280;31672;47.638;19.026;2022-07-29T02:01:37;100073.50;;;21.42;52.65
42761;BME280;31672;47.638;19.026;2022-07-29T02:06:43;100072.59;;;21.36;53.04
42761;BME280;31672;47.638;19.026;2022-07-29T02:11:52;100073.31;;;21.31;53.08
42761;BME280;31672;47.638;19.026;2022-07-29T02:16:56;100075.63;;;21.28;53.33
42761;BME280;31672;47.638;19.026;2022-07-29T02:22:01;100062.00;;;21.23;53.43
42761;BME280;31672;47.638;19.026;2022-07-29T02:27:04;100058.16;;;21.19;53.54
42761;BME280;31672;47.638;19.026;2022-07-29T02:32:09;100053.22;;;21.16;53.50
42761;BME280;31672;47.638;19.026;2022-07-29T02:37:16;100062.03;;;21.11;53.44
42761;BME280;31672;47.638;19.026;2022-07-29T02:42:22;100053.63;;;21.07;53.92
42761;BME280;31672;47.638;19.026;2022-07-29T02:47:37;100062.19;;;21.04;53.94
42761;BME280;31672;47.638;19.026;2022-07-29T02:53:09;100056.72;;;20.99;54.37
42761;BME280;31672;47.638;19.026;2022-07-29T03:03:42;100054.16;;;20.81;54.38
42761;BME280;31672;47.638;19.026;2022-07-29T03:08:48;100060.50;;;20.75;54.92
42761;BME280;31672;47.638;19.026;2022-07-29T03:13:52;100069.22;;;20.65;55.21
42761;BME280;31672;47.638;19.026;2022-07-29T03:18:55;100068.75;;;20.56;55.89
42761;BME280;31672;47.638;19.026;2022-07-29T03:23:58;100069.13;;;20.48;56.09
42761;BME280;31672;47.638;19.026;2022-07-29T03:29:01;100068.84;;;20.38;56.38
42761;BME280;31672;47.638;19.026;2022-07-29T03:34:04;100073.22;;;20.27;56.66
42761;BME280;31672;47.638;19.026;2022-07-29T03:39:09;100070.03;;;20.19;56.93
42761;BME280;31672;47.638;19.026;2022-07-29T03:44:14;100065.56;;;20.13;57.43
42761;BME280;31672;47.638;19.026;2022-07-29T03:49:19;100072.47;;;20.09;57.87
42761;BME280;31672;47.638;19.026;2022-07-29T03:54:24;100069.31;;;20.12;58.15
42761;BME280;31672;47.638;19.026;2022-07-29T03:59:28;100071.31;;;20.16;59.13
42761;BME280;31672;47.638;19.026;2022-07-29T04:04:34;100077.66;;;20.22;58.98
42761;BME280;31672;47.638;19.026;2022-07-29T04:09:37;100081.06;;;20.29;59.09
42761;BME280;31672;47.638;19.026;2022-07-29T04:14:40;100083.88;;;20.34;59.30
42761;BME280;31672;47.638;19.026;2022-07-29T04:19:46;100091.03;;;20.40;59.63
42761;BME280;31672;47.638;19.026;2022-07-29T04:24:49;100075.44;;;20.42;59.53
42761;BME280;31672;47.638;19.026;2022-07-29T04:29:52;100087.56;;;20.51;59.47
42761;BME280;31672;47.638;19.026;2022-07-29T04:34:59;100080.97;;;20.59;59.60
42761;BME280;31672;47.638;19.026;2022-07-29T04:40:03;100081.19;;;20.69;59.72
42761;BME280;31672;47.638;19.026;2022-07-29T04:45:06;100077.41;;;20.82;59.85
42761;BME280;31672;47.638;19.026;2022-07-29T04:50:10;100083.25;;;20.91;59.32
42761;BME280;31672;47.638;19.026;2022-07-29T04:55:13;100084.28;;;21.01;59.22
42761;BME280;31672;47.638;19.026;2022-07-29T05:00:16;100081.81;;;21.11;58.98
42761;BME280;31672;47.638;19.026;2022-07-29T05:05:19;100081.88;;;21.17;58.89
42761;BME280;31672;47.638;19.026;2022-07-29T05:10:22;100079.63;;;21.25;59.00
42761;BME280;31672;47.638;19.026;2022-07-29T05:15:25;100073.63;;;21.35;58.77
42761;BME280;31672;47.638;19.026;2022-07-29T05:20:29;100081.47;;;21.48;58.72
42761;BME280;31672;47.638;19.026;2022-07-29T05:25:33;100083.59;;;21.63;58.96
42761;BME280;31672;47.638;19.026;2022-07-29T05:30:46;100091.75;;;21.80;58.49
42761;BME280;31672;47.638;19.026;2022-07-29T05:35:49;100084.47;;;21.97;58.07
42761;BME280;31672;47.638;19.026;2022-07-29T05:40:52;100089.16;;;22.18;57.78
42761;BME280;31672;47.638;19.026;2022-07-29T05:45:55;100085.72;;;22.40;57.11
42761;BME280;31672;47.638;19.026;2022-07-29T05:50:58;100085.50;;;22.63;56.60
42761;BME280;31672;47.638;19.026;2022-07-29T05:56:05;100082.59;;;22.87;55.64
42761;BME280;31672;47.638;19.026;2022-07-29T06:01:08;100078.00;;;23.09;55.30
42761;BME280;31672;47.638;19.026;2022-07-29T06:06:11;100085.84;;;23.33;54.24
42761;BME280;31672;47.638;19.026;2022-07-29T06:11:13;100086.94;;;23.59;53.57
42761;BME280;31672;47.638;19.026;2022-07-29T06:16:16;100086.13;;;23.85;51.60
42761;BME280;31672;47.638;19.026;2022-07-29T06:21:31;100085.81;;;24.14;51.04
42761;BME280;31672;47.638;19.026;2022-07-29T06:26:34;100079.50;;;24.40;50.28
42761;BME280;31672;47.638;19.026;2022-07-29T06:31:41;100092.44;;;24.65;49.26
42761;BME280;31672;47.638;19.026;2022-07-29T06:36:44;100086.84;;;24.87;47.92
42761;BME280;31672;47.638;19.026;2022-07-29T06:41:49;100089.34;;;25.04;47.19
42761;BME280;31672;47.638;19.026;2022-07-29T06:46:53;100090.00;;;25.21;46.27
42761;BME280;31672;47.638;19.026;2022-07-29T06:51:57;100091.69;;;25.38;45.97
42761;BME280;31672;47.638;19.026;2022-07-29T06:57:00;100099.88;;;25.58;46.34
42761;BME280;31672;47.638;19.026;2022-07-29T07:02:02;100093.13;;;25.76;45.99
42761;BME280;31672;47.638;19.026;2022-07-29T07:07:05;100098.84;;;25.89;45.73
42761;BME280;31672;47.638;19.026;2022-07-29T07:12:09;100095.31;;;25.94;45.12
42761;BME280;31672;47.638;19.026;2022-07-29T07:17:11;100095.59;;;25.98;45.25
42761;BME280;31672;47.638;19.026;2022-07-29T07:22:14;100087.16;;;26.04;44.23
42761;BME280;31672;47.638;19.026;2022-07-29T07:27:17;100081.16;;;26.18;44.76
42761;BME280;31672;47.638;19.026;2022-07-29T07:32:20;100075.66;;;26.38;44.21
42761;BME280;31672;47.638;19.026;2022-07-29T07:37:23;100085.22;;;26.51;43.39
42761;BME280;31672;47.638;19.026;2022-07-29T07:42:27;100072.66;;;26.65;43.34
42761;BME280;31672;47.638;19.026;2022-07-29T07:47:30;100068.75;;;26.86;43.08
42761;BME280;31672;47.638;19.026;2022-07-29T07:52:50;100067.03;;;27.11;42.86
42761;BME280;31672;47.638;19.026;2022-07-29T07:57:54;100064.75;;;27.28;42.06
42761;BME280;31672;47.638;19.026;2022-07-29T08:02:57;100064.06;;;27.52;41.35
42761;BME280;31672;47.638;19.026;2022-07-29T08:08:00;100060.19;;;27.63;41.19
42761;BME280;31672;47.638;19.026;2022-07-29T08:13:05;100057.03;;;27.85;40.95
42761;BME280;31672;47.638;19.026;2022-07-29T08:18:09;100051.16;;;28.02;40.16
42761;BME280;31672;47.638;19.026;2022-07-29T08:23:12;100054.16;;;28.29;39.32
42761;BME280;31672;47.638;19.026;2022-07-29T08:28:15;100042.53;;;28.47;39.85
42761;BME280;31672;47.638;19.026;2022-07-29T08:33:18;100043.56;;;28.75;39.22
42761;BME280;31672;47.638;19.026;2022-07-29T08:38:21;100045.28;;;29.14;37.95
42761;BME280;31672;47.638;19.026;2022-07-29T08:43:24;100039.91;;;29.28;37.66
42761;BME280;31672;47.638;19.026;2022-07-29T08:48:28;100043.50;;;29.42;37.24
42761;BME280;31672;47.638;19.026;2022-07-29T08:53:31;100036.41;;;29.41;37.08
42761;BME280;31672;47.638;19.026;2022-07-29T08:58:34;100034.56;;;29.55;37.28
42761;BME280;31672;47.638;19.026;2022-07-29T09:03:40;100029.06;;;29.74;36.21
42761;BME280;31672;47.638;19.026;2022-07-29T09:08:44;100025.09;;;29.99;36.19
42761;BME280;31672;47.638;19.026;2022-07-29T09:13:49;100019.41;;;30.09;35.44
42761;BME280;31672;47.638;19.026;2022-07-29T09:18:52;100015.91;;;30.23;35.14
42761;BME280;31672;47.638;19.026;2022-07-29T09:24:11;100012.88;;;30.38;34.94
42761;BME280;31672;47.638;19.026;2022-07-29T09:29:18;100012.78;;;30.43;33.39
42761;BME280;31672;47.638;19.026;2022-07-29T09:34:26;100010.25;;;30.60;34.17
42761;BME280;31672;47.638;19.026;2022-07-29T09:39:36;100005.38;;;30.85;33.61
42761;BME280;31672;47.638;19.026;2022-07-29T09:44:48;100003.50;;;31.08;33.23
42761;BME280;31672;47.638;19.026;2022-07-29T09:49:55;99994.81;;;31.28;32.79
42761;BME280;31672;47.638;19.026;2022-07-29T09:55:08;99986.47;;;31.33;32.20
42761;BME280;31672;47.638;19.026;2022-07-29T10:00:20;99986.38;;;31.25;30.80
42761;BME280;31672;47.638;19.026;2022-07-29T10:05:26;99985.91;;;31.45;31.87
42761;BME280;31672;47.638;19.026;2022-07-29T10:10:41;99978.75;;;31.66;31.23
42761;BME280;31672;47.638;19.026;2022-07-29T10:15:44;99972.53;;;31.75;30.46
42761;BME280;31672;47.638;19.026;2022-07-29T10:20:49;99972.81;;;31.95;30.58
42761;BME280;31672;47.638;19.026;2022-07-29T10:25:52;99973.38;;;32.06;28.92
42761;BME280;31672;47.638;19.026;2022-07-29T10:31:03;99957.94;;;32.28;29.45
42761;BME280;31672;47.638;19.026;2022-07-29T10:42:20;99941.75;;;32.92;28.16
42761;BME280;31672;47.638;19.026;2022-07-29T10:47:36;99944.69;;;32.95;28.06
42761;BME280;31672;47.638;19.026;2022-07-29T10:52:58;99943.16;;;32.81;27.96
42761;BME280;31672;47.638;19.026;2022-07-29T10:58:21;99931.56;;;32.92;27.79
42761;BME280;31672;47.638;19.026;2022-07-29T11:03:46;99931.22;;;32.76;28.09
42761;BME280;31672;47.638;19.026;2022-07-29T11:09:18;99932.00;;;32.68;28.65
42761;BME280;31672;47.638;19.026;2022-07-29T11:31:46;99906.59;;;32.14;29.34
42761;BME280;31672;47.638;19.026;2022-07-29T11:47:37;99880.88;;;33.19;27.32
42761;BME280;31672;47.638;19.026;2022-07-29T11:52:44;99889.09;;;33.54;27.11
42761;BME280;31672;47.638;19.026;2022-07-29T11:57:59;99882.03;;;33.74;26.17
42761;BME280;31672;47.638;19.026;2022-07-29T12:03:08;99872.88;;;33.99;26.49
42761;BME280;31672;47.638;19.026;2022-07-29T12:08:19;99870.81;;;34.17;25.58
42761;BME280;31672;47.638;19.026;2022-07-29T12:13:22;99864.13;;;34.27;25.46
42761;BME280;31672;47.638;19.026;2022-07-29T12:18:39;99863.44;;;34.09;25.17
42761;BME280;31672;47.638;19.026;2022-07-29T12:23:52;99848.31;;;34.15;25.57
42761;BME280;31672;47.638;19.026;2022-07-29T12:28:56;99848.75;;;34.47;25.23
42761;BME280;31672;47.638;19.026;2022-07-29T12:34:03;99835.84;;;34.09;24.98
42761;BME280;31672;47.638;19.026;2022-07-29T12:39:06;99829.66;;;34.12;25.55
42761;BME280;31672;47.638;19.026;2022-07-29T12:44:11;99826.69;;;34.47;24.55
42761;BME280;31672;47.638;19.026;2022-07-29T12:49:21;99828.16;;;34.86;24.78
42761;BME280;31672;47.638;19.026;2022-07-29T12:54:25;99816.63;;;35.05;24.46
42761;BME280;31672;47.638;19.026;2022-07-29T12:59:28;99812.88;;;35.22;23.55
42761;BME280;31672;47.638;19.026;2022-07-29T13:04:33;99799.88;;;35.34;23.53
42761;BME280;31672;47.638;19.026;2022-07-29T13:09:41;99805.56;;;35.62;23.21
42761;BME280;31672;47.638;19.026;2022-07-29T13:14:47;99793.69;;;35.62;22.70
42761;BME280;31672;47.638;19.026;2022-07-29T13:19:52;99797.16;;;35.47;22.44
42761;BME280;31672;47.638;19.026;2022-07-29T13:25:01;99779.38;;;35.11;22.78
42761;BME280;31672;47.638;19.026;2022-07-29T13:30:09;99778.69;;;35.26;22.75
42761;BME280;31672;47.638;19.026;2022-07-29T13:35:13;99781.16;;;35.52;22.86
42761;BME280;31672;47.638;19.026;2022-07-29T13:40:16;99773.91;;;35.72;22.08
42761;BME280;31672;47.638;19.026;2022-07-29T13:45:18;99765.38;;;35.40;22.50
42761;BME280;31672;47.638;19.026;2022-07-29T13:50:21;99768.03;;;34.92;23.38
42761;BME280;31672;47.638;19.026;2022-07-29T13:55:24;99752.78;;;34.73;23.15
42761;BME280;31672;47.638;19.026;2022-07-29T14:00:28;99752.91;;;34.77;23.30
42761;BME280;31672;47.638;19.026;2022-07-29T14:05:31;99753.50;;;34.82;22.89
42761;BME280;31672;47.638;19.026;2022-07-29T14:10:33;99740.91;;;34.94;22.44
42761;BME280;31672;47.638;19.026;2022-07-29T14:15:36;99732.88;;;35.13;22.84
42761;BME280;31672;47.638;19.026;2022-07-29T14:20:41;99725.56;;;35.54;22.48
42761;BME280;31672;47.638;19.026;2022-07-29T14:25:43;99720.69;;;35.87;21.91
42761;BME280;31672;47.638;19.026;2022-07-29T14:30:47;99724.59;;;35.99;22.14
42761;BME280;31672;47.638;19.026;2022-07-29T14:35:50;99721.91;;;36.14;21.00
42761;BME280;31672;47.638;19.026;2022-07-29T14:40:53;99703.84;;;36.05;21.31
42761;BME280;31672;47.638;19.026;2022-07-29T14:45:56;99705.31;;;36.14;21.23
42761;BME280;31672;47.638;19.026;2022-07-29T14:51:07;99706.22;;;36.18;21.21
42761;BME280;31672;47.638;19.026;2022-07-29T14:56:10;99700.84;;;36.38;21.15
42761;BME280;31672;47.638;19.026;2022-07-29T15:01:33;99694.13;;;36.39;21.34
42761;BME280;31672;47.638;19.026;2022-07-29T15:06:36;99678.22;;;36.48;21.35
42761;BME280;31672;47.638;19.026;2022-07-29T15:11:38;99683.78;;;36.64;21.19
42761;BME280;31672;47.638;19.026;2022-07-29T15:16:41;99685.59;;;36.72;20.85
42761;BME280;31672;47.638;19.026;2022-07-29T15:21:49;99686.94;;;36.78;20.39
42761;BME280;31672;47.638;19.026;2022-07-29T15:26:53;99684.69;;;36.68;20.76
42761;BME280;31672;47.638;19.026;2022-07-29T15:31:56;99677.25;;;36.28;20.77
42761;BME280;31672;47.638;19.026;2022-07-29T15:36:59;99682.81;;;35.76;21.78
42761;BME280;31672;47.638;19.026;2022-07-29T15:42:03;99676.63;;;35.30;22.44
42761;BME280;31672;47.638;19.026;2022-07-29T15:47:06;99664.53;;;35.22;22.62
42761;BME280;31672;47.638;19.026;2022-07-29T15:52:09;99659.69;;;35.31;22.58
42761;BME280;31672;47.638;19.026;2022-07-29T15:57:14;99652.19;;;35.56;22.22
42761;BME280;31672;47.638;19.026;2022-07-29T16:02:16;99655.19;;;35.76;22.46
42761;BME280;31672;47.638;19.026;2022-07-29T16:07:19;99647.22;;;35.74;22.35
42761;BME280;31672;47.638;19.026;2022-07-29T16:12:25;99651.53;;;35.59;21.67
42761;BME280;31672;47.638;19.026;2022-07-29T16:17:28;99651.09;;;35.45;22.74
42761;BME280;31672;47.638;19.026;2022-07-29T16:22:31;99647.75;;;35.15;22.71
42761;BME280;31672;47.638;19.026;2022-07-29T16:27:34;99664.50;;;34.85;23.36
42761;BME280;31672;47.638;19.026;2022-07-29T16:32:39;99659.03;;;34.52;23.52
42761;BME280;31672;47.638;19.026;2022-07-29T16:37:42;99660.47;;;34.17;23.65
42761;BME280;31672;47.638;19.026;2022-07-29T16:42:45;99655.38;;;33.86;24.76
42761;BME280;31672;47.638;19.026;2022-07-29T16:47:49;99655.28;;;33.73;25.02
42761;BME280;31672;47.638;19.026;2022-07-29T16:52:52;99649.94;;;33.77;25.57
42761;BME280;31672;47.638;19.026;2022-07-29T16:57:56;99650.41;;;33.79;25.84
42761;BME280;31672;47.638;19.026;2022-07-29T17:02:59;99656.63;;;33.67;25.38
42761;BME280;31672;47.638;19.026;2022-07-29T17:08:02;99645.72;;;33.50;25.58
42761;BME280;31672;47.638;19.026;2022-07-29T17:13:05;99654.41;;;33.31;26.06
42761;BME280;31672;47.638;19.026;2022-07-29T17:18:11;99652.91;;;33.04;26.28
42761;BME280;31672;47.638;19.026;2022-07-29T17:23:14;99655.28;;;32.76;27.03
42761;BME280;31672;47.638;19.026;2022-07-29T17:28:17;99661.84;;;32.45;27.58
42761;BME280;31672;47.638;19.026;2022-07-29T17:33:20;99654.88;;;32.13;28.60
42761;BME280;31672;47.638;19.026;2022-07-29T17:38:23;99656.50;;;31.80;29.13
42761;BME280;31672;47.638;19.026;2022-07-29T17:43:25;99655.78;;;31.48;28.88
42761;BME280;31672;47.638;19.026;2022-07-29T17:48:28;99661.63;;;31.15;29.13
42761;BME280;31672;47.638;19.026;2022-07-29T17:53:31;99661.22;;;30.91;29.60
42761;BME280;31672;47.638;19.026;2022-07-29T17:58:34;99662.69;;;30.66;29.78
42761;BME280;31672;47.638;19.026;2022-07-29T18:03:37;99672.88;;;30.43;29.96
42761;BME280;31672;47.638;19.026;2022-07-29T18:08:40;99681.88;;;30.21;30.58
42761;BME280;31672;47.638;19.026;2022-07-29T18:13:43;99694.72;;;29.98;31.15
42761;BME280;31672;47.638;19.026;2022-07-29T18:18:46;99710.31;;;29.75;31.82
42761;BME280;31672;47.638;19.026;2022-07-29T18:23:49;99713.16;;;29.56;32.83
42761;BME280;31672;47.638;19.026;2022-07-29T18:28:54;99718.59;;;29.43;33.28
42761;BME280;31672;47.638;19.026;2022-07-29T18:33:57;99726.31;;;29.27;34.54
42761;BME280;31672;47.638;19.026;2022-07-29T18:39:01;99741.09;;;29.12;34.58
42761;BME280;31672;47.638;19.026;2022-07-29T18:44:04;99750.19;;;28.94;35.01
42761;BME280;31672;47.638;19.026;2022-07-29T18:49:07;99752.13;;;28.74;36.03
42761;BME280;31672;47.638;19.026;2022-07-29T18:54:11;99755.91;;;28.60;36.03
42761;BME280;31672;47.638;19.026;2022-07-29T18:59:14;99755.84;;;28.46;36.54
42761;BME280;31672;47.638;19.026;2022-07-29T19:04:18;99771.59;;;28.35;36.73
42761;BME280;31672;47.638;19.026;2022-07-29T19:09:21;99772.53;;;28.25;36.89
42761;BME280;31672;47.638;19.026;2022-07-29T19:14:24;99778.38;;;28.19;37.34
42761;BME280;31672;47.638;19.026;2022-07-29T19:19:27;99777.09;;;28.11;36.89
42761;BME280;31672;47.638;19.026;2022-07-29T19:24:30;99782.63;;;28.06;37.54
42761;BME280;31672;47.638;19.026;2022-07-29T19:29:33;99776.78;;;27.94;37.84
42761;BME280;31672;47.638;19.026;2022-07-29T19:34:36;99781.63;;;27.78;38.11
42761;BME280;31672;47.638;19.026;2022-07-29T19:39:39;99780.06;;;27.72;38.18
42761;BME280;31672;47.638;19.026;2022-07-29T19:44:42;99776.38;;;27.58;38.44
42761;BME280;31672;47.638;19.026;2022-07-29T19:49:45;99774.03;;;27.46;38.65
42761;BME280;31672;47.638;19.026;2022-07-29T19:54:48;99775.53;;;27.33;39.20
42761;BME280;31672;47.638;19.026;2022-07-29T19:59:51;99773.47;;;27.25;39.47
42761;BME280;31672;47.638;19.026;2022-07-29T20:04:54;99775.47;;;27.14;39.34
42761;BME280;31672;47.638;19.026;2022-07-29T20:09:57;99779.91;;;27.05;39.62
42761;BME280;31672;47.638;19.026;2022-07-29T20:15:00;99779.34;;;27.03;39.98
42761;BME280;31672;47.638;19.026;2022-07-29T20:20:04;99776.44;;;26.94;40.14
42761;BME280;31672;47.638;19.026;2022-07-29T20:25:07;99778.09;;;26.90;40.50
42761;BME280;31672;47.638;19.026;2022-07-29T20:30:11;99791.75;;;26.90;41.01
42761;BME280;31672;47.638;19.026;2022-07-29T20:35:15;99798.59;;;26.88;41.27
42761;BME280;31672;47.638;19.026;2022-07-29T20:40:21;99812.81;;;26.80;41.54
42761;BME280;31672;47.638;19.026;2022-07-29T20:45:24;99812.34;;;26.67;42.09
42761;BME280;31672;47.638;19.026;2022-07-29T20:50:27;99824.66;;;26.65;42.44
42761;BME280;31672;47.638;19.026;2022-07-29T20:55:31;99827.13;;;26.61;42.51
42761;BME280;31672;47.638;19.026;2022-07-29T21:00:34;99842.16;;;26.54;42.87
42761;BME280;31672;47.638;19.026;2022-07-29T21:05:37;99827.50;;;26.45;43.53
42761;BME280;31672;47.638;19.026;2022-07-29T21:10:44;99832.44;;;26.32;43.96
42761;BME280;31672;47.638;19.026;2022-07-29T21:15:47;99842.59;;;26.17;44.46
42761;BME280;31672;47.638;19.026;2022-07-29T21:20:53;99840.19;;;26.10;44.75
42761;BME280;31672;47.638;19.026;2022-07-29T21:25:57;99832.91;;;25.90;45.13
42761;BME280;31672;47.638;19.026;2022-07-29T21:31:05;99849.00;;;25.76;45.98
42761;BME280;31672;47.638;19.026;2022-07-29T21:36:10;99847.38;;;25.65;46.10
42761;BME280;31672;47.638;19.026;2022-07-29T21:41:33;99857.75;;;25.53;46.59
42761;BME280;31672;47.638;19.026;2022-07-29T21:46:36;99845.50;;;25.50;46.83
42761;BME280;31672;47.638;19.026;2022-07-29T21:51:40;99864.28;;;25.42;46.80
42761;BME280;31672;47.638;19.026;2022-07-29T21:56:42;99865.38;;;25.35;47.32
42761;BME280;31672;47.638;19.026;2022-07-29T22:01:52;99876.25;;;25.30;47.64
42761;BME280;31672;47.638;19.026;2022-07-29T22:06:56;99880.63;;;25.21;47.67
42761;BME280;31672;47.638;19.026;2022-07-29T22:12:00;99889.59;;;25.17;48.19
42761;BME280;31672;47.638;19.026;2022-07-29T22:17:04;99881.72;;;25.15;48.27
42761;BME280;31672;47.638;19.026;2022-07-29T22:22:07;99873.81;;;25.08;48.61
42761;BME280;31672;47.638;19.026;2022-07-29T22:27:10;99873.78;;;25.03;49.20
42761;BME280;31672;47.638;19.026;2022-07-29T22:32:13;99885.47;;;24.99;49.36
42761;BME280;31672;47.638;19.026;2022-07-29T22:37:16;99871.59;;;24.85;50.15
42761;BME280;31672;47.638;19.026;2022-07-29T22:42:19;99868.31;;;24.68;50.64
42761;BME280;31672;47.638;19.026;2022-07-29T22:47:21;99860.94;;;24.53;51.48
42761;BME280;31672;47.638;19.026;2022-07-29T22:52:45;99874.50;;;24.43;52.16
42761;BME280;31672;47.638;19.026;2022-07-29T22:57:49;99855.47;;;24.38;52.59
42761;BME280;31672;47.638;19.026;2022-07-29T23:02:51;99855.38;;;24.27;52.83
42761;BME280;31672;47.638;19.026;2022-07-29T23:07:54;99855.91;;;24.19;53.31
42761;BME280;31672;47.638;19.026;2022-07-29T23:12:57;99847.72;;;24.09;53.30
42761;BME280;31672;47.638;19.026;2022-07-29T23:18:00;99856.13;;;24.08;53.31
42761;BME280;31672;47.638;19.026;2022-07-29T23:23:03;99838.50;;;24.10;53.30
42761;BME280;31672;47.638;19.026;2022-07-29T23:28:06;99834.41;;;24.08;53.31
42761;BME280;31672;47.638;19.026;2022-07-29T23:33:14;99823.81;;;24.01;53.68
42761;BME280;31672;47.638;19.026;2022-07-29T23:38:17;99817.81;;;23.94;53.78
42761;BME280;31672;47.638;19.026;2022-07-29T23:43:20;99819.13;;;23.86;53.87
42761;BME280;31672;47.638;19.026;2022-07-29T23:48:23;99816.41;;;23.81;54.29
42761;BME280;31672;47.638;19.026;2022-07-29T23:53:27;99824.22;;;23.72;54.59
42761;BME280;31672;47.638;19.026;2022-07-29T23:58:30;99840.72;;;23.66;54.58
